Time;durP1;ratioP1;P1;durP2;ratioP2;P2;SDS_P1;SDS_P2;PMS_P1;PMS_P2;Temp;Humidity;BMP_temperature;BMP_pressure;BME280_temperature;BME280_humidity;BME280_pressure;Samples;Min_cycle;Max_cycle;Signal;HPM_P1;HPM_P2
2021/05/20 00:00:55;;;;;;;12.23;8.93;;;9.80;99.90;;;8.24;94.68;101630.44;3522759;39;104096;-40
2021/05/20 00:03:23;;;;;;;;;;;9.80;99.90;;;8.25;94.51;101636.72;3522293;39;102523;-40
2021/05/20 00:05:51;;;;;;;10.82;7.65;;;9.80;99.90;;;8.23;94.60;101627.91;3514235;39;103652;-40
2021/05/20 00:08:19;;;;;;;11.93;8.32;;;9.80;99.90;;;8.20;94.45;101624.50;3530271;39;102589;-40
2021/05/20 00:10:47;;;;;;;11.77;8.30;;;9.80;99.90;;;8.21;94.54;101634.34;3522070;39;103859;-40
2021/05/20 00:13:14;;;;;;;12.95;8.50;;;9.70;99.90;;;8.20;94.53;101635.34;3530592;39;103555;-40
2021/05/20 00:15:42;;;;;;;12.77;8.18;;;9.70;99.90;;;8.23;94.85;101636.06;3538450;39;102319;-40
2021/05/20 00:18:10;;;;;;;;;;;9.70;99.90;;;8.21;94.63;101636.22;3531185;39;104905;-40
2021/05/20 00:20:37;;;;;;;;;;;9.80;99.90;;;8.21;94.86;101637.06;3514892;39;103074;-40
2021/05/20 00:23:05;;;;;;;;;;;9.70;99.90;;;8.20;94.21;101638.06;3531147;39;102667;-40
2021/05/20 00:25:33;;;;;;;;;;;9.70;99.90;;;8.18;94.02;101637.41;3522953;39;104478;-40
2021/05/20 00:28:01;;;;;;;;;;;9.70;99.90;;;8.16;94.13;101644.06;3514829;39;102568;-39
2021/05/20 00:30:28;;;;;;;;;;;9.70;99.90;;;8.11;93.71;101650.03;3522980;39;102509;-40
2021/05/20 00:32:56;;;;;;;;;;;9.70;99.90;;;8.11;93.47;101643.75;3506625;39;102159;-40
2021/05/20 00:35:24;;;;;;;;;;;9.70;99.90;;;8.06;93.28;101647.00;3514313;39;104128;-40
2021/05/20 00:37:51;;;;;;;;;;;9.60;99.90;;;7.99;93.60;101646.84;3531257;39;102450;-40
2021/05/20 00:40:19;;;;;;;;;;;9.60;99.90;;;8.00;93.52;101647.69;3522550;39;102250;-40
2021/05/20 00:42:47;;;;;;;;;;;9.60;99.90;;;7.95;93.81;101653.66;3522808;39;104384;-40
2021/05/20 00:45:16;;;;;;;;;;;9.50;99.90;;;7.94;93.75;101649.25;3522796;39;102366;-40
2021/05/20 00:47:44;;;;;;;;;;;9.50;99.90;;;7.93;93.70;101650.25;3539381;39;102465;-40
2021/05/20 00:50:13;;;;;;;;;;;9.50;99.90;;;7.90;94.01;101651.44;3522888;39;102345;-40
2021/05/20 00:52:40;;;;;;;;;;;9.50;99.90;;;7.88;94.00;101655.38;3530850;39;102231;-40
2021/05/20 00:55:09;;;;;;;;;;;9.50;99.90;;;7.85;94.14;101653.84;3522608;39;102332;-40
2021/05/20 00:57:39;;;;;;;;;;;9.40;99.90;;;7.85;94.55;101658.44;3531028;39;102172;-40
2021/05/20 01:00:10;;;;;;;;;;;9.40;99.90;;;7.85;94.42;101663.88;3514687;39;102217;-40
2021/05/20 01:02:40;;;;;;;;;;;9.40;99.90;;;7.84;94.04;101660.31;3538754;39;104427;-40
2021/05/20 01:05:11;;;;;;;;;;;9.40;99.90;;;7.84;93.98;101659.47;3530593;39;103019;-40
2021/05/20 01:07:40;;;;;;;;;;;9.40;99.90;;;7.80;93.82;101671.69;3539367;39;102399;-40
2021/05/20 01:10:09;;;;;;;;;;;9.40;99.90;;;7.74;93.58;101665.91;3539516;39;102177;-40
2021/05/20 01:12:37;;;;;;;;;;;9.30;99.90;;;7.73;93.69;101666.94;3530822;39;102344;-40
2021/05/20 01:15:18;;;;;;;;;;;9.30;99.90;;;7.78;93.65;101674.59;3522468;39;102344;-40
2021/05/20 01:17:48;;;;;;;;;;;9.30;99.90;;;7.81;93.90;101673.38;3646434;22;103636;-39
2021/05/20 01:20:19;;;;;;;;;;;9.30;99.90;;;7.90;94.10;101675.91;3509862;40;102378;-39
2021/05/20 01:22:46;;;;;;;;;;;9.40;99.90;;;7.90;93.88;101670.47;3509629;40;102436;-38
2021/05/20 01:25:15;;;;;;;;;;;9.40;99.90;;;7.91;94.33;101672.16;3509184;40;105427;-39
2021/05/20 01:27:44;;;;;;;;;;;9.40;99.90;;;7.89;94.16;101668.78;3502019;40;102420;-39
2021/05/20 01:30:13;;;;;;;;;;;9.40;99.90;;;7.85;94.46;101670.16;3509647;40;103388;-39
2021/05/20 01:32:41;;;;;;;;;;;9.40;99.90;;;7.81;94.24;101670.66;3501712;40;102309;-39
2021/05/20 01:35:09;;;;;;;;;;;9.40;99.90;;;7.74;94.23;101674.06;3484989;40;103203;-38
2021/05/20 01:37:37;;;;;;;;;;;9.30;99.90;;;7.66;94.70;101674.09;3509885;40;102379;-39
2021/05/20 01:40:06;;;;;;;;;;;9.30;99.90;;;7.61;94.81;101673.78;3486023;40;103100;-39
2021/05/20 01:42:34;;;;;;;;;;;9.20;99.90;;;7.52;94.74;101670.22;3510193;40;102896;-39
2021/05/20 01:45:02;;;;;;;;;;;9.10;99.90;;;7.41;94.49;101675.97;3509572;40;103958;-39
2021/05/20 01:47:30;;;;;;;;;;;9.10;99.90;;;7.35;94.49;101677.53;3501754;40;102758;-39
2021/05/20 01:49:58;;;;;;;;;;;9.00;99.90;;;7.30;94.21;101672.59;3493461;40;105579;-39
2021/05/20 01:52:26;;;;;;;;;;;8.90;99.90;;;7.24;93.81;101677.84;3485340;40;102415;-38
2021/05/20 01:54:54;;;;;;;;;;;8.90;99.90;;;7.18;93.41;101673.97;3500954;40;105842;-39
2021/05/20 01:57:22;;;;;;;;;;;8.80;99.90;;;7.11;93.00;101671.06;3493599;40;102853;-39
2021/05/20 01:59:49;;;;;;;;;;;8.70;99.90;;;7.06;92.93;101687.03;3493661;40;102378;-39
2021/05/20 02:02:17;;;;;;;;;;;8.70;99.90;;;7.03;93.08;101687.34;3485174;40;102891;-38
2021/05/20 02:04:45;;;;;;;;;;;8.60;99.90;;;6.97;92.92;101683.44;3509730;40;103435;-39
2021/05/20 02:07:12;;;;;;;;;;;8.60;99.90;;;6.95;93.53;101674.63;3493298;40;102439;-38
2021/05/20 02:09:40;;;;;;;;;;;8.60;99.90;;;6.90;93.63;101687.84;3509607;40;102365;-39
2021/05/20 02:12:09;;;;;;;;;;;8.50;99.90;;;6.83;93.27;101684.09;3485485;40;102342;-39
2021/05/20 02:14:36;;;;;;;;;;;8.50;99.90;;;6.75;93.31;101687.63;3509390;40;102807;-39
2021/05/20 02:17:04;;;;;;;;;;;8.40;99.90;;;6.71;93.15;101688.97;3509106;40;102937;-38
2021/05/20 02:19:31;;;;;;;;;;;8.40;99.90;;;6.64;93.19;101686.09;3501320;40;103086;-38
2021/05/20 02:21:59;;;;;;;;;;;8.30;99.90;;;6.60;93.01;101684.69;3501789;40;103565;-39
2021/05/20 02:24:27;;;;;;;;;;;8.30;99.90;;;6.55;93.03;101681.63;3492999;40;102649;-38
2021/05/20 02:26:54;;;;;;;;;;;8.20;99.90;;;6.51;93.21;101683.84;3493340;40;102257;-39
2021/05/20 02:29:22;;;;;;;;;;;8.20;99.90;;;6.48;92.43;101700.41;3501612;40;103244;-38
2021/05/20 02:31:50;;;;;;;;;;;8.20;99.90;;;6.40;92.51;101703.97;3485158;40;102439;-39
2021/05/20 02:34:17;;;;;;;;;;;8.10;99.90;;;6.35;92.34;101702.75;3484902;40;104773;-39
2021/05/20 02:36:45;;;;;;;;;;;8.00;99.90;;;6.29;92.55;101696.97;3493221;40;103371;-38
2021/05/20 02:39:13;;;;;;;;;;;8.00;99.90;;;6.22;92.44;101695.91;3501053;40;103982;-40
2021/05/20 02:41:40;;;;;;;;;;;7.90;99.90;;;6.16;92.47;101697.44;3493470;40;102203;-39
2021/05/20 02:44:09;;;;;;;;;;;7.90;99.90;;;6.11;92.70;101699.78;3509083;40;103033;-39
2021/05/20 02:46:37;;;;;;;;;;;7.80;99.90;;;6.07;92.43;101701.09;3493383;40;104519;-39
2021/05/20 02:49:04;;;;;;;;;;;7.80;99.90;;;6.03;92.93;101703.28;3485067;40;102264;-39
2021/05/20 02:51:32;;;;;;;;;;;7.70;99.90;;;6.01;92.79;101710.72;3493428;40;102369;-39
2021/05/20 02:54:00;;;;;;;;;;;7.70;99.90;;;5.95;93.08;101711.31;3500969;40;104987;-40
2021/05/20 02:56:28;;;;;;;;;;;7.60;99.90;;;5.88;92.76;101703.00;3500810;40;103095;-41
2021/05/20 02:58:55;;;;;;;;;;;7.60;99.90;;;5.86;92.89;101712.28;3501613;40;104754;-40
2021/05/20 03:01:24;;;;;;;;;;;7.60;99.90;;;5.81;92.97;101704.63;3485216;40;102883;-41
2021/05/20 03:03:52;;;;;;;;;;;7.50;99.90;;;5.78;93.03;101715.78;3499860;40;103482;-41
2021/05/20 03:06:20;;;;;;;;;;;7.50;99.90;;;5.71;92.78;101710.16;3493200;40;102431;-41
2021/05/20 03:08:49;;;;;;;;;;;7.40;99.90;;;5.69;92.59;101716.75;3477042;40;104246;-41
2021/05/20 03:11:16;;;;;;;;;;;7.40;99.90;;;5.64;92.67;101717.22;3509195;40;103066;-41
2021/05/20 03:13:44;;;;;;;;;;;7.40;99.90;;;5.65;92.91;101718.06;3492527;40;104153;-41
2021/05/20 03:16:12;;;;;;;;;;;7.30;99.90;;;5.59;93.44;101722.25;3492699;40;102483;-40
2021/05/20 03:18:39;;;;;;;;;;;7.30;99.90;;;5.54;92.79;101716.47;3492835;40;102435;-41
2021/05/20 03:21:07;;;;;;;;;;;7.20;99.90;;;5.47;92.84;101710.81;3500844;40;103853;-41
2021/05/20 03:23:35;;;;;;;;;;;7.20;99.90;;;5.45;92.81;101715.53;3501339;40;103266;-41
2021/05/20 03:26:03;;;;;;;;;;;7.20;99.90;;;5.43;93.08;101717.56;3501213;40;102971;-40
2021/05/20 03:28:30;;;;;;;;;;;7.10;99.90;;;5.38;92.54;101718.03;3492819;40;103174;-40
2021/05/20 03:30:58;;;;;;;;;;;7.10;99.90;;;5.37;92.29;101721.72;3484992;40;103117;-40
2021/05/20 03:33:25;;;;;;;;;;;7.00;99.90;;;5.35;91.98;101723.75;3492752;40;103129;-41
2021/05/20 03:35:56;;;;;;;;;;;7.00;99.90;;;5.35;92.01;101731.03;3500725;40;102080;-38
2021/05/20 03:38:24;;;;;;;;;;;7.00;99.90;;;5.32;92.19;101727.63;3493269;40;104618;-40
2021/05/20 03:40:51;;;;;;;;;;;7.00;99.90;;;5.35;92.43;101722.91;3509110;40;102489;-40
2021/05/20 03:43:19;;;;;;;;;;;7.00;99.90;;;5.36;92.88;101722.75;3492524;40;105928;-40
2021/05/20 03:45:46;;;;;;;;;;;7.00;99.90;;;5.37;92.68;101719.03;3509164;40;102516;-38
2021/05/20 03:48:14;;;;;;;;;;;7.00;99.90;;;5.38;92.89;101730.72;3508538;40;102305;-40
2021/05/20 03:50:41;;;;;;;;;;;7.00;99.90;;;5.40;93.53;101734.94;3509472;40;102396;-40
2021/05/20 03:53:09;;;;;;;;;;;7.00;99.90;;;5.42;93.50;101734.81;3492835;40;103399;-39
2021/05/20 03:55:36;;;;;;;;;;;7.00;99.90;;;5.44;94.06;101730.94;3508538;40;102418;-38
2021/05/20 03:58:04;;;;;;;;;;;7.10;99.90;;;5.52;94.18;101738.25;3492540;40;104886;-39
2021/05/20 04:00:31;;;;;;;;;;;7.10;99.90;;;5.56;93.76;101734.22;3516526;40;102208;-38
2021/05/20 04:02:59;;;;;;;;;;;7.20;99.90;;;5.64;93.84;101735.31;3492062;40;105606;-38
2021/05/20 04:05:26;;;;;;;;;;;7.20;99.90;;;5.75;94.38;101733.22;3508528;40;102382;-38
2021/05/20 04:07:54;;;;;;;;;;;7.30;99.90;;;5.94;95.41;101738.56;3484427;40;104103;-41
2021/05/20 04:10:21;;;;;;;;;;;7.40;99.90;;;6.09;95.62;101741.56;3508730;40;102826;-40
2021/05/20 04:12:49;;;;;;;;;;;7.60;99.90;;;6.22;96.50;101741.97;3508801;40;104045;-40
2021/05/20 04:15:17;;;;;;;;;;;7.70;99.90;;;6.38;96.91;101749.38;3485348;40;102246;-38
2021/05/20 04:17:45;;;;;;;;;;;7.90;99.90;;;6.55;97.66;101746.72;3509796;40;105497;-39
2021/05/20 04:20:14;;;;;;;;;;;8.00;99.90;;;6.57;97.67;101752.81;3510255;40;102235;-38
2021/05/20 04:22:41;;;;;;;;;;;8.10;99.90;;;6.62;98.03;101754.03;3511191;40;103935;-38
2021/05/20 04:25:10;;;;;;;;;;;8.20;99.90;;;6.70;98.31;101761.34;3509428;40;102795;-40
2021/05/20 04:27:37;;;;;;;;;;;8.20;99.90;;;6.73;98.35;101763.75;3518112;40;104089;-39
2021/05/20 04:30:06;;;;;;;;;;;8.30;99.90;;;6.87;98.52;101766.81;3485501;40;102159;-38
2021/05/20 04:32:34;;;;;;;;;;;8.40;99.90;;;6.94;98.40;101772.44;3510448;40;103067;-38
2021/05/20 04:35:01;;;;;;;;;;;8.40;99.90;;;6.97;98.28;101764.84;3493400;40;102445;-38
2021/05/20 04:37:28;;;;;;;;;;;8.50;99.90;;;6.99;98.42;101764.66;3501879;40;103490;-38
2021/05/20 04:39:56;;;;;;;;;;;8.50;99.90;;;7.07;98.37;101769.25;3509700;40;102842;-39
2021/05/20 04:42:23;;;;;;;;;;;8.60;99.90;;;7.15;98.50;101771.97;3493717;40;103189;-39
2021/05/20 04:44:51;;;;;;;;;;;8.60;99.90;;;7.16;98.03;101779.97;3493396;40;102401;-39
2021/05/20 04:47:18;;;;;;;;;;;8.60;99.90;;;7.15;98.08;101774.69;3511121;40;104871;-39
2021/05/20 04:49:46;;;;;;;;;;;8.70;99.90;;;7.17;97.99;101776.25;3510014;40;102510;-38
2021/05/20 04:52:13;;;;;;;;;;;8.70;99.90;;;7.18;98.10;101760.81;3509791;40;102419;-38
2021/05/20 04:54:41;;;;;;;;;;;8.70;99.90;;;7.24;97.75;101775.56;3501489;40;102480;-38
2021/05/20 04:57:08;;;;;;;;;;;8.70;99.90;;;7.31;98.09;101772.03;3493684;40;103353;-39
2021/05/20 04:59:36;;;;;;;;;;;8.80;99.90;;;7.31;97.92;101772.03;3501819;40;102752;-39
2021/05/20 05:02:03;;;;;;;;;;;8.80;99.90;;;7.37;97.92;101775.94;3493708;40;103927;-39
2021/05/20 05:04:30;;;;;;;;;;;8.90;99.90;;;7.42;97.77;101775.41;3501055;40;102254;-38
2021/05/20 05:06:58;;;;;;;;;;;8.90;99.90;;;7.42;97.66;101783.56;3501634;40;103222;-39
2021/05/20 05:09:25;;;;;;;;;;;8.90;99.90;;;7.45;97.66;101778.66;3510099;40;103687;-39
2021/05/20 05:11:52;;;;;;;;;;;9.00;99.90;;;7.54;97.60;101787.66;3501840;40;102967;-39
2021/05/20 05:14:19;;;;;;;;;;;9.00;99.90;;;7.58;97.19;101797.16;3501457;40;102529;-38
2021/05/20 05:16:47;;;;;;;;;;;9.00;99.90;;;7.63;96.86;101791.22;3509491;40;103159;-38
2021/05/20 05:19:17;;;;;;;;;;;9.10;99.90;;;7.62;95.95;101794.97;3509516;40;102707;-40
2021/05/20 05:21:44;;;;;;;;;;;9.10;99.90;;;7.59;95.83;101793.44;3511086;40;102255;-41
2021/05/20 05:24:12;;;;;;;;;;;9.10;99.90;;;7.58;95.95;101799.03;3509347;40;102059;-41
2021/05/20 05:26:40;;;;;;;;;;;9.10;99.90;;;7.63;96.03;101800.22;3509257;40;104070;-41
2021/05/20 05:29:07;;;;;;;;;;;9.10;99.90;;;7.66;96.56;101795.47;3510151;40;102423;-40
2021/05/20 05:31:36;;;;;;;;;;;9.10;99.90;;;7.66;96.17;101798.19;3509232;40;105191;-40
2021/05/20 05:34:04;;;;;;;;;;;9.10;99.90;;;7.73;95.38;101802.78;3509501;40;102756;-40
2021/05/20 05:36:31;;;;;;;;;;;9.20;99.90;;;7.76;95.33;101797.00;3509786;40;103857;-40
2021/05/20 05:38:59;;;;;;;;;;;9.20;99.90;;;7.85;95.06;101795.13;3509984;40;102583;-41
2021/05/20 05:41:27;;;;;;;;;;;9.30;99.90;;;7.83;94.26;101793.63;3509519;40;104761;-41
2021/05/20 05:43:54;;;;;;;;;;;9.30;99.90;;;7.87;94.46;101793.09;3510855;40;102729;-39
2021/05/20 05:46:22;;;;;;;;;;;9.30;99.90;;;7.92;94.75;101787.97;3510824;40;104158;-38
2021/05/20 05:48:49;;;;;;;;;;;9.40;99.90;;;7.97;94.87;101781.22;3511024;40;102672;-39
2021/05/20 05:51:20;;;;;;;;;;;9.40;99.90;;;8.09;94.59;101787.09;3510729;40;103144;-39
2021/05/20 05:53:47;;;;;;;;;;;9.50;99.90;;;8.13;94.52;101781.16;3510327;40;102631;-38
2021/05/20 05:56:15;;;;;;;;;;;9.60;99.90;;;8.21;94.83;101783.03;3501363;40;103354;-39
2021/05/20 05:58:42;;;;;;;;;;;9.60;99.90;;;8.25;94.65;101783.53;3517723;40;102225;-39
2021/05/20 06:01:10;;;;;;;;;;;9.70;99.90;;;8.30;94.68;101781.97;3501733;40;102353;-39
2021/05/20 06:03:37;;;;;;;;;;;9.70;99.90;;;8.24;94.18;101779.94;3500881;40;102246;-39
2021/05/20 06:06:05;;;;;;;;;;;9.70;99.90;;;8.40;94.23;101787.22;3501656;40;103814;-39
2021/05/20 06:08:32;;;;;;;;;;;9.80;99.90;;;8.38;93.29;101793.88;3509375;40;102628;-39
2021/05/20 06:10:59;;;;;;;;;;;9.80;99.90;;;8.35;92.86;101781.47;3501438;40;102272;-39
2021/05/20 06:13:27;;;;;;;;;;;9.80;99.90;;;8.39;92.85;101785.53;3509163;40;102327;-38
2021/05/20 06:15:55;;;;;;;;;;;9.80;99.90;;;8.40;92.23;101803.53;3510038;40;104109;-39
2021/05/20 06:18:22;;;;;;;;;;;9.80;99.90;;;8.47;92.68;101793.66;3501304;40;102348;-38
2021/05/20 06:20:50;;;;;;;;;;;9.90;99.90;;;8.51;92.39;101806.94;3509177;40;104796;-39
2021/05/20 06:23:18;;;;;;;;;;;9.90;99.90;;;8.54;92.06;101793.84;3509125;40;102715;-39
2021/05/20 06:25:46;;;;;;;;;;;9.90;99.90;;;8.56;92.49;101801.81;3501314;40;103909;-38
2021/05/20 06:28:14;;;;;;;;;;;9.90;99.90;;;8.60;92.65;101804.00;3509881;40;102226;-39
2021/05/20 06:30:41;;;;;;;;;;;10.00;99.90;;;8.57;91.47;101808.97;3510696;40;103033;-39
2021/05/20 06:33:08;;;;;;;;;;;10.00;99.90;;;8.55;91.72;101800.97;3510421;40;102294;-39
2021/05/20 06:35:36;;;;;;;;;;;10.00;99.90;;;8.59;91.75;101804.19;3509006;40;102276;-39
2021/05/20 06:38:03;;;;;;;;;;;10.00;99.90;;;8.60;91.63;101809.44;3510159;40;102760;-39
2021/05/20 06:40:31;;;;;;;;;;;10.00;99.90;;;8.66;91.65;101810.63;3509853;40;105116;-39
2021/05/20 06:42:58;;;;;;;;;;;10.10;99.90;;;8.71;91.50;101808.22;3509826;40;102655;-39
2021/05/20 06:45:25;;;;;;;;;;;10.10;99.90;;;8.73;90.72;101808.06;3492810;40;104842;-39
2021/05/20 06:47:54;;;;;;;;;;;10.10;99.90;;;8.71;90.76;101816.38;3510409;40;102181;-39
2021/05/20 06:50:22;;;;;;;;;;;10.10;99.90;;;8.78;91.23;101811.09;3509705;40;103214;-39
2021/05/20 06:52:52;;;;;;;;;;;10.20;99.90;;;8.76;90.61;101818.59;3509868;40;102765;-39
2021/05/20 06:55:22;;;;;;;;;;;10.20;99.90;;;8.76;90.34;101819.44;3510054;40;102324;-39
2021/05/20 07:00:27;;;;;;;;;;;10.20;99.90;;;8.73;90.80;101821.66;3510417;40;102144;-40
2021/05/20 07:02:54;;;;;;;;;;;10.10;99.90;;;8.72;91.06;101828.97;3517454;40;102239;-39
2021/05/20 07:05:22;;;;;;;;;;;10.10;99.90;;;8.83;91.45;101835.06;3500901;40;103103;-38
2021/05/20 07:07:50;;;;;;;;;;;10.20;99.90;;;8.89;91.86;101828.91;3510320;40;102410;-38
2021/05/20 07:10:18;;;;;;;;;;;10.30;99.90;;;8.94;90.36;101837.38;3509101;40;102202;-39
2021/05/20 07:12:46;;;;;;;;;;;10.30;99.90;;;8.93;89.32;101832.97;3509257;40;102704;-38
2021/05/20 07:15:14;;;;;;;;;;;10.40;99.90;;;8.95;90.12;101833.63;3509146;40;103012;-39
2021/05/20 07:17:42;;;;;;;;;;;10.40;99.90;;;9.00;90.47;101836.66;3646945;22;103887;-40
2021/05/20 07:20:10;;;;;;;;;;;10.40;99.90;;;9.02;90.89;101833.78;3529796;39;102123;-40
2021/05/20 07:22:37;;;;;;;;;;;10.40;99.90;;;9.03;90.27;101841.78;3529917;39;102210;-40
2021/05/20 07:25:06;;;;;;;;;;;10.40;99.90;;;9.04;90.68;101842.63;3528690;39;103297;-40
2021/05/20 07:27:34;;;;;;;;;;;10.40;99.90;;;9.05;90.05;101841.59;3529422;39;102952;-40
2021/05/20 07:30:03;;;;;;;;;;;10.40;99.90;;;9.16;91.50;101840.34;3528719;39;104804;-40
2021/05/20 07:32:32;;;;;;;;;;;10.50;99.90;;;9.30;90.93;101841.47;3529782;39;103790;-40
2021/05/20 07:35:06;;;;;;;;;;;10.60;99.90;;;9.43;90.06;101830.84;3520497;39;105444;-40
2021/05/20 07:37:33;;;;;;;;;;;10.70;99.90;;;9.57;88.45;101833.78;3536851;39;102386;-40
2021/05/20 07:40:01;;;;;;;;;;;10.80;99.90;;;9.67;87.93;101842.56;3520821;39;102312;-40
2021/05/20 07:42:28;;;;;;;;;;;10.90;99.90;;;9.75;87.91;101838.94;3529912;39;102201;-40
2021/05/20 07:44:56;;;;;;;;;;;11.00;99.90;;;9.88;87.83;101843.78;3520292;39;103201;-40
2021/05/20 07:47:24;;;;;;;;;;;11.10;99.90;;;9.92;87.37;101837.78;3529643;39;102389;-40
2021/05/20 07:49:52;;;;;;;;;;;11.10;99.90;;;10.03;87.87;101843.81;3529587;39;103162;-40
2021/05/20 07:52:21;;;;;;;;;;;11.30;99.90;;;10.10;86.38;101847.53;3530956;39;102172;-40
2021/05/20 07:54:49;;;;;;;;;;;11.30;99.90;;;10.17;86.15;101855.78;3529553;39;104607;-40
2021/05/20 07:57:16;;;;;;;;;;;11.40;99.90;;;10.16;85.97;101852.25;3530790;39;102191;-40
2021/05/20 07:59:44;;;;;;;;;;;11.50;99.90;;;10.24;86.56;101862.22;3521620;39;103140;-40
2021/05/20 08:04:51;;;;;;;;;;;11.50;99.90;;;10.22;85.78;101853.38;3531051;39;102140;-40
2021/05/20 08:12:34;;;;;;;;;;;11.70;99.90;;;10.67;84.83;101850.72;3529784;39;102130;-40
2021/05/20 08:15:03;;;;;;;;;;;11.80;99.90;;;10.89;85.66;101851.66;3529307;39;103168;-40
2021/05/20 08:17:31;;;;;;;;;;;12.00;99.90;;;11.06;85.40;101852.28;3538117;39;102365;-40
2021/05/20 08:19:58;;;;;;;;;;;12.10;99.90;;;11.20;83.36;101852.47;3529824;39;102131;-41
2021/05/20 08:22:26;;;;;;;;;;;12.30;99.90;;;11.30;82.57;101846.72;3529525;39;102344;-40
2021/05/20 08:24:53;;;;;;;;;;;12.40;99.90;;;11.40;80.96;101847.22;3529635;39;102683;-40
2021/05/20 08:27:21;;;;;;;;;;;12.50;99.90;;;11.44;81.74;101837.59;3529699;39;102339;-40
2021/05/20 08:29:49;;;;;;;;;;;12.60;99.90;;;11.48;81.97;101844.38;3530089;39;103102;-40
2021/05/20 08:32:17;;;;;;;;;;;12.60;99.90;;;11.49;81.79;101845.22;3529642;39;102855;-40
2021/05/20 08:34:44;;;;;;;;;;;12.60;99.90;;;11.42;80.07;101844.31;3529538;39;102987;-41
2021/05/20 08:37:11;;;;;;;;;;;12.60;99.90;;;11.38;80.51;101843.84;3531288;39;102090;-40
2021/05/20 08:39:39;;;;;;;;;;;12.60;99.90;;;11.31;80.38;101837.47;3529321;39;103079;-40
2021/05/20 08:42:07;;;;;;;;;;;12.70;99.90;;;11.28;78.62;101837.88;3521218;39;103524;-40
2021/05/20 08:44:34;;;;;;;;;;;12.60;99.90;;;11.42;80.32;101838.84;3520934;39;103075;-40
2021/05/20 08:47:06;;;;;;;;;;;12.70;99.90;;;11.55;79.56;101838.97;3530828;39;102331;-40
2021/05/20 08:49:33;;;;;;;;;;;12.70;99.90;;;11.71;80.18;101831.59;3521293;39;103030;-40
2021/05/20 08:52:01;;;;;;;;;;;12.80;99.90;;;11.78;77.19;101832.47;3530580;39;102394;-40
2021/05/20 08:54:45;;;;;;;;;;;12.90;99.90;;;11.85;76.95;101838.84;3529483;39;103930;-40
2021/05/20 08:57:12;;;;;;;;;;;13.00;99.90;;;11.96;77.70;101834.75;3530451;39;103599;-40
2021/05/20 08:59:40;;;;;;;;;;;13.10;99.90;;;12.01;74.80;101831.47;3529591;39;102322;-40
2021/05/20 09:02:21;;;;;;;;;;;13.20;99.90;;;12.13;75.31;101835.31;3530374;39;102813;-40
2021/05/20 09:05:08;;;;;;;;;;;13.30;99.90;;;12.31;73.44;101820.31;3530077;39;103110;-41
2021/05/20 09:07:39;;;;;;;;;;;13.40;99.90;;;12.52;74.78;101816.66;3530822;39;102343;-40
2021/05/20 09:10:09;;;;;;;;;;;13.60;99.90;;;12.60;73.92;101821.13;3530811;39;103162;-40
2021/05/20 09:12:38;;;;;;;;;;;13.70;99.90;;;12.80;74.40;101818.50;3529610;39;102661;-40
2021/05/20 09:15:25;;;;;;;;;;;13.80;99.90;;;12.93;73.72;101817.69;3530357;39;102807;-40
2021/05/20 09:17:53;;;;;;;;;;;13.90;99.90;;;13.11;72.33;101806.19;3530869;39;102286;-40
2021/05/20 09:20:22;;;;;;;;;;;14.10;99.90;;;13.50;73.62;101812.00;3538087;39;103044;-40
2021/05/20 09:23:04;;;;;;;;;;;14.30;99.90;;;13.93;71.51;101795.19;3529676;39;102310;-40
2021/05/20 09:25:33;;;;;;;;;;;14.70;99.90;;;14.39;69.11;101793.41;3537980;39;102994;-40
2021/05/20 09:28:02;;;;;;;;;;;15.10;99.90;;;14.72;65.70;101799.91;3530441;39;102817;-40
2021/05/20 09:30:32;;;;;;;;;;;15.40;99.90;;;15.09;64.74;101797.44;3529355;39;102070;-40
2021/05/20 09:35:42;;;;;;;;;;;16.10;99.90;;;15.49;67.20;101795.53;3530132;39;103908;-40
2021/05/20 09:38:16;;;;;;;;;;;16.20;99.90;;;15.61;65.50;101798.41;3529459;39;102879;-40
2021/05/20 09:40:50;;;;;;;;;;;16.40;99.90;;;15.48;65.15;101794.66;3537450;39;102230;-40
2021/05/20 09:43:21;;;;;;;;;;;16.40;99.90;;;15.73;62.31;101782.03;3530666;39;102749;-41
2021/05/20 09:45:52;;;;;;;;;;;16.60;99.90;;;15.88;65.04;101784.44;3530618;39;102180;-41
2021/05/20 09:48:22;;;;;;;;;;;16.70;99.90;;;15.92;63.72;101777.44;3531101;39;102367;-40
2021/05/20 09:50:51;;;;;;;;;;;16.80;99.90;;;16.15;64.70;101779.53;3530625;39;104959;-41
2021/05/20 09:53:23;;;;;;;;;;;16.90;99.90;;;16.23;61.17;101773.78;3537580;39;102406;-40
2021/05/20 09:55:54;;;;;;;;;;;17.10;99.90;;;16.29;62.63;101772.00;3531148;39;103213;-41
2021/05/20 09:58:26;;;;;;;;;;;17.10;99.90;;;16.39;63.09;101769.56;3529477;39;102925;-41
2021/05/20 10:00:55;;;;;;;;;;;17.20;99.90;;;16.17;58.34;101762.81;3531160;39;102368;-41
2021/05/20 10:03:25;;;;;;;;;;;17.20;99.90;;;16.07;61.93;101768.84;3529375;39;102826;-41
2021/05/20 10:05:56;;;;;;;;;;;17.20;99.90;;;16.22;61.85;101763.81;3530201;39;104038;-41
2021/05/20 10:08:26;;;;;;;;;;;17.20;99.90;;;16.57;61.40;101767.88;3530697;39;102299;-41
2021/05/20 10:10:55;;;;;;;;;;;17.40;99.90;;;16.74;61.34;101770.88;3530991;39;104947;-40
2021/05/20 10:13:24;;;;;;;;;;;17.60;99.90;;;17.18;60.09;101767.13;3529038;39;102835;-41
2021/05/20 10:15:55;;;;;;;;;;;17.90;99.90;;;17.54;57.32;101770.84;3530425;39;102228;-41
2021/05/20 10:18:25;;;;;;;;;;;18.20;99.90;;;17.44;55.69;101765.06;3537557;39;102803;-41
2021/05/20 10:20:57;;;;;;;;;;;18.20;99.90;;;17.09;56.40;101761.94;3537469;39;102335;-41
2021/05/20 10:23:25;;;;;;;;;;;18.10;99.90;;;16.81;58.73;101766.09;3530640;39;102609;-41
2021/05/20 10:25:55;;;;;;;;;;;17.90;99.90;;;16.45;59.92;101755.94;3521612;39;102574;-41
2021/05/20 10:28:25;;;;;;;;;;;17.60;99.90;;;16.18;57.03;101753.50;3537540;39;102410;-47
2021/05/20 10:30:54;;;;;;;;;;;17.40;99.90;;;16.35;60.63;101748.22;3530616;39;102317;-41
2021/05/20 10:33:31;;;;;;;;;;;17.40;99.90;;;16.54;59.64;101746.31;3537148;39;102448;-41
2021/05/20 10:36:00;;;;;;;;;;;17.40;99.90;;;16.79;56.65;101740.69;3530400;39;102278;-41
2021/05/20 10:38:29;;;;;;;;;;;17.70;99.90;;;16.82;54.27;101737.47;3521210;39;102355;-41
2021/05/20 10:41:08;;;;;;;;;;;17.80;99.90;;;16.95;52.88;101730.09;3530921;39;103032;-41
2021/05/20 10:43:37;;;;;;;;;;;17.90;99.90;;;16.95;51.55;101730.09;3530060;39;102317;-40
2021/05/20 10:46:15;;;;;;;;;;;18.00;99.90;;;17.11;50.19;101721.19;3530119;39;103825;-40
2021/05/20 10:48:53;;;;;;;;;;;18.10;99.90;;;17.39;51.76;101724.41;3530375;39;102468;-40
2021/05/20 10:51:40;;;;;;;;;;;18.30;99.90;;;17.54;54.38;101710.16;3529106;39;105657;-41
2021/05/20 10:54:09;;;;;;;;;;;18.40;99.90;;;17.61;52.51;101715.53;3529080;39;103237;-41
2021/05/20 10:56:38;;;;;;;;;;;18.50;99.90;;;17.22;53.16;101702.16;3529040;39;104048;-41
2021/05/20 10:59:25;;;;;;;;;;;18.30;99.90;;;17.18;53.68;101689.94;3530637;39;102275;-42
2021/05/20 11:01:52;;;;;;;;;;;18.30;99.90;;;17.47;56.81;101699.22;3530154;39;102978;-40
2021/05/20 11:04:41;;;;;;;;;;;18.40;99.90;;;17.60;52.34;101694.56;3529388;39;102741;-40
2021/05/20 11:07:09;;;;;;;;;;;18.50;99.90;;;17.63;47.50;101700.44;3530628;39;103248;-40
2021/05/20 11:09:47;;;;;;;;;;;18.60;96.50;;;17.88;48.38;101687.47;3520796;39;102417;-40
2021/05/20 11:12:17;;;;;;;;;;;18.80;99.40;;;17.59;49.98;101688.22;3530172;39;103916;-39
2021/05/20 11:14:47;;;;;;;;;;;18.70;98.80;;;17.65;52.46;101684.47;3520427;39;104739;-41
2021/05/20 11:17:33;;;;;;;;;;;18.80;99.90;;;17.62;49.77;101673.94;3530499;39;103056;-41
2021/05/20 11:20:20;;;;;;;;;;;18.80;99.50;;;17.96;51.08;101674.16;3530187;39;102693;-40
2021/05/20 11:23:07;;;;;;;;;;;18.90;99.40;;;18.07;47.21;101678.00;3530024;39;102334;-41
2021/05/20 11:25:34;;;;;;;;;;;19.10;95.20;;;18.31;50.77;101671.63;3529566;39;102309;-38
2021/05/20 11:28:06;;;;;;;;;;;19.30;99.90;;;18.42;49.61;101673.50;3528850;39;102208;-40
2021/05/20 11:30:34;;;;;;;;;;;19.40;99.00;;;18.63;54.18;101663.69;3529195;39;102412;-39